createdAt,value
2019-03-04T00:02:58.296Z,36
2019-03-04T00:07:58.292Z,36
2019-03-04T00:12:58.255Z,41
2019-03-04T00:17:58.270Z,43
2019-03-04T00:22:58.285Z,41
2019-03-04T00:27:58.237Z,41
2019-03-04T00:32:58.233Z,40
2019-03-04T00:42:59.041Z,38
2019-03-04T00:47:58.957Z,38
2019-03-04T00:52:58.974Z,37
2019-03-04T00:57:58.991Z,39
2019-03-04T01:02:58.936Z,36
2019-03-04T01:07:58.952Z,33
2019-03-04T01:12:58.989Z,36
2019-03-04T01:17:58.936Z,36
2019-03-04T01:22:58.961Z,33
2019-03-04T01:27:58.954Z,38
2019-03-04T01:32:58.940Z,39
2019-03-04T01:37:58.910Z,40
2019-03-04T01:42:58.943Z,39
2019-03-04T01:47:58.924Z,40
2019-03-04T01:52:58.935Z,39
2019-03-04T01:57:58.930Z,38
2019-03-04T02:02:58.891Z,36
2019-03-04T02:07:58.870Z,36
2019-03-04T02:12:58.863Z,36
2019-03-04T02:17:58.879Z,38
2019-03-04T02:22:58.869Z,36
2019-03-04T02:27:58.892Z,33
2019-03-04T02:32:58.890Z,36
2019-03-04T02:37:58.854Z,31
2019-03-04T02:42:58.883Z,36
2019-03-04T02:47:58.841Z,33
2019-03-04T02:51:47.620Z,32
2019-03-04T02:56:47.586Z,35
2019-03-04T03:01:47.597Z,32
2019-03-04T03:06:48.378Z,33
2019-03-04T03:11:48.347Z,34
2019-03-04T03:16:48.353Z,32
2019-03-04T03:21:48.338Z,32
2019-03-04T03:26:48.323Z,35
2019-03-04T03:31:48.372Z,33
2019-03-04T03:36:48.336Z,32
2019-03-04T03:41:48.293Z,33
2019-03-04T03:46:48.274Z,36
2019-03-04T03:51:48.270Z,39
2019-03-04T04:01:48.275Z,40
2019-03-04T04:06:48.290Z,37
2019-03-04T04:11:48.230Z,36
2019-03-04T04:16:48.231Z,36
2019-03-04T04:21:48.239Z,35
2019-03-04T04:26:48.283Z,35
2019-03-04T04:31:48.244Z,35
2019-03-04T04:36:48.238Z,37
2019-03-04T04:41:48.227Z,36
2019-03-04T04:46:48.195Z,35
2019-03-04T04:51:48.194Z,35
2019-03-04T04:56:48.214Z,32
2019-03-04T05:01:48.161Z,32
2019-03-04T05:06:48.177Z,36
2019-03-04T05:11:48.221Z,33
2019-03-04T05:13:46.845Z,34
2019-03-04T05:18:46.871Z,34
2019-03-04T05:23:46.808Z,32
2019-03-04T05:28:46.783Z,32
2019-03-04T05:33:46.793Z,31
2019-03-04T05:38:46.809Z,30
2019-03-04T05:43:46.803Z,32
2019-03-04T05:48:46.778Z,29
2019-03-04T05:53:46.765Z,30
2019-03-04T05:58:46.793Z,32
2019-03-04T06:03:46.775Z,32
2019-03-04T06:08:46.779Z,30
2019-03-04T06:13:46.799Z,30
2019-03-04T06:18:46.763Z,28
2019-03-04T06:23:46.728Z,30
2019-03-04T06:28:46.721Z,30
2019-03-04T06:33:46.762Z,34
2019-03-04T06:38:46.719Z,36
2019-03-04T06:43:46.727Z,38
2019-03-04T06:48:46.726Z,39
2019-03-04T06:53:46.701Z,37
2019-03-04T06:58:46.708Z,32
2019-03-04T07:03:46.727Z,31
2019-03-04T07:08:46.690Z,35
2019-03-04T07:13:46.672Z,34
2019-03-04T07:18:46.691Z,32
2019-03-04T07:23:46.705Z,33
2019-03-04T07:28:46.756Z,34
2019-03-04T07:33:46.651Z,30
2019-03-04T07:38:46.638Z,33
2019-03-04T07:43:46.623Z,31
2019-03-04T07:48:46.669Z,30
2019-03-04T07:53:47.089Z,32
2019-03-04T07:58:46.604Z,33
2019-03-04T08:03:46.635Z,31
2019-03-04T08:08:46.646Z,32
2019-03-04T08:13:46.638Z,28
2019-03-04T08:18:46.613Z,28
2019-03-04T08:23:46.619Z,29
2019-03-04T08:28:46.609Z,26
2019-03-04T08:33:46.632Z,31
2019-03-04T08:38:46.557Z,30
2019-03-04T08:43:46.582Z,29
2019-03-04T08:48:46.566Z,30
2019-03-04T08:53:46.529Z,29
2019-03-04T08:58:46.567Z,30
2019-03-04T09:03:46.572Z,28
2019-03-04T09:08:46.548Z,26
2019-03-04T09:13:46.595Z,29
2019-03-04T09:18:46.527Z,32
2019-03-04T09:23:46.528Z,25
2019-03-04T09:29:15.248Z,28
2019-03-04T09:34:15.288Z,27
2019-03-04T09:39:15.292Z,29
2019-03-04T09:44:15.247Z,28
2019-03-04T09:49:15.232Z,25
2019-03-04T09:54:15.273Z,28
2019-03-04T09:59:15.211Z,28
2019-03-04T10:04:17.406Z,29
2019-03-04T10:09:15.985Z,28
2019-03-04T10:14:16.087Z,24
2019-03-04T10:19:15.919Z,26
2019-03-04T10:24:15.978Z,27
2019-03-04T10:29:15.942Z,24
2019-03-04T10:34:15.908Z,27
2019-03-04T10:39:22.565Z,22
2019-03-04T10:44:15.936Z,25
2019-03-04T10:49:15.941Z,29
2019-03-04T10:54:15.909Z,24
2019-03-04T10:59:15.898Z,26
2019-03-04T11:04:15.906Z,24
2019-03-04T11:09:15.885Z,24
2019-03-04T11:14:15.876Z,24
2019-03-04T11:19:15.903Z,28
2019-03-04T11:24:15.918Z,24
2019-03-04T11:29:15.877Z,23
2019-03-04T11:34:15.840Z,26
2019-03-04T11:39:15.868Z,25
2019-03-04T11:44:15.813Z,24
2019-03-04T11:49:15.826Z,23
2019-03-04T11:54:15.857Z,25
2019-03-04T11:59:15.856Z,24
2019-03-04T12:04:15.807Z,24
2019-03-04T12:09:15.858Z,28
2019-03-04T12:14:15.818Z,24
2019-03-04T12:19:15.787Z,25
2019-03-04T12:24:16.966Z,23
2019-03-04T12:29:15.805Z,27
2019-03-04T12:34:25.115Z,26
2019-03-04T12:39:15.795Z,24
2019-03-04T12:44:15.807Z,24
2019-03-04T12:49:18.556Z,22
2019-03-04T12:54:15.806Z,22
2019-03-04T12:59:16.481Z,21
2019-03-04T13:04:16.523Z,24
2019-03-04T13:13:21.198Z,24
2019-03-04T13:18:21.206Z,23
2019-03-04T13:23:21.153Z,24
2019-03-04T13:28:21.156Z,24
2019-03-04T13:33:21.172Z,25
2019-03-04T13:38:21.132Z,23
2019-03-04T13:43:23.196Z,21
2019-03-04T13:48:21.139Z,24
2019-03-04T13:53:21.123Z,22
2019-03-04T13:58:21.137Z,20
2019-03-04T14:08:22.633Z,21
2019-03-04T14:13:22.636Z,22
2019-03-04T14:18:22.594Z,24
2019-03-04T14:23:22.588Z,23
2019-03-04T14:28:22.606Z,18
2019-03-04T14:33:22.578Z,19
2019-03-04T14:38:22.605Z,22
2019-03-04T14:43:22.606Z,20
2019-03-04T14:48:22.673Z,20
2019-03-04T14:58:25.426Z,19
2019-03-04T15:03:25.449Z,20
2019-03-04T15:08:25.435Z,21
2019-03-04T15:13:25.453Z,20
2019-03-04T15:18:25.394Z,19
2019-03-04T15:23:26.169Z,18
2019-03-04T15:28:26.156Z,18
2019-03-04T15:33:26.125Z,18
2019-03-04T15:38:01.406Z,20
2019-03-04T15:43:03.361Z,19
2019-03-04T15:48:01.380Z,16
2019-03-04T15:53:01.367Z,18
2019-03-04T15:58:01.357Z,16
2019-03-04T16:03:01.370Z,16
2019-03-04T16:08:08.199Z,17
2019-03-04T16:13:01.371Z,18
2019-03-04T16:18:01.326Z,17
2019-03-04T16:23:01.337Z,16
2019-03-04T16:28:01.331Z,17
2019-03-04T16:33:01.321Z,14
2019-03-04T16:38:01.355Z,16
2019-03-04T16:43:01.325Z,18
2019-03-04T16:48:01.379Z,16
2019-03-04T16:53:01.262Z,17
2019-03-04T16:58:02.050Z,21
2019-03-04T17:03:02.368Z,20
2019-03-04T17:08:02.054Z,22
2019-03-04T17:13:02.026Z,24
2019-03-04T17:18:04.634Z,24
2019-03-04T17:23:03.509Z,29
2019-03-04T17:28:03.498Z,29
2019-03-04T17:33:03.490Z,27
2019-03-04T17:38:03.493Z,28
2019-03-04T17:43:03.461Z,30
2019-03-04T17:48:04.589Z,28
2019-03-04T17:53:03.503Z,30
2019-03-04T17:58:03.462Z,32
2019-03-04T18:03:03.446Z,30
2019-03-04T18:08:03.476Z,30
2019-03-04T18:13:03.444Z,30
2019-03-04T18:18:03.442Z,30
2019-03-04T18:23:03.430Z,31
2019-03-04T18:28:03.432Z,29
2019-03-04T18:33:03.450Z,30
2019-03-04T18:38:03.426Z,30
2019-03-04T18:43:03.393Z,30
2019-03-04T18:48:03.403Z,30
2019-03-04T18:53:03.388Z,32
2019-03-04T18:58:04.586Z,30
2019-03-04T19:03:03.378Z,30
2019-03-04T19:08:03.382Z,31
2019-03-04T19:13:03.363Z,34
2019-03-04T19:18:03.365Z,32
2019-03-04T19:23:03.364Z,32
2019-03-04T19:28:03.344Z,32
2019-03-04T19:33:03.351Z,33
2019-03-04T19:38:03.336Z,32
2019-03-04T19:43:03.312Z,31
2019-03-04T19:48:03.365Z,32
2019-03-04T19:53:03.327Z,31
2019-03-04T19:58:03.331Z,31
2019-03-04T20:03:03.340Z,30
2019-03-04T20:08:03.312Z,34
2019-03-04T20:13:03.321Z,34
2019-03-04T20:18:03.335Z,37
2019-03-04T20:23:03.307Z,36
2019-03-04T20:28:03.320Z,36
2019-03-04T20:33:03.324Z,36
2019-03-04T20:38:03.291Z,35
2019-03-04T20:43:03.266Z,35
2019-03-04T20:48:03.316Z,34
2019-03-04T20:53:03.264Z,36
2019-03-04T20:58:03.239Z,35
2019-03-04T21:03:03.236Z,31
2019-03-04T21:08:03.238Z,34
2019-03-04T21:13:03.207Z,36
2019-03-04T21:18:03.226Z,33
2019-03-04T21:23:03.277Z,35
2019-03-04T21:28:03.184Z,36
2019-03-04T21:33:03.186Z,38
2019-03-04T21:38:03.185Z,40
2019-03-04T21:43:03.204Z,40
2019-03-04T21:48:03.248Z,43
2019-03-04T21:53:03.215Z,43
2019-03-04T21:58:03.238Z,40
2019-03-04T22:03:03.161Z,38
2019-03-04T22:08:03.178Z,40
2019-03-04T22:13:03.170Z,37
2019-03-04T22:18:03.187Z,37
2019-03-04T22:23:03.148Z,39
2019-03-04T22:28:03.197Z,39
2019-03-04T22:33:03.132Z,38
2019-03-04T22:38:03.148Z,38
2019-03-04T22:43:03.140Z,38
2019-03-04T22:48:03.182Z,41
2019-03-04T22:53:03.139Z,39
2019-03-04T22:58:03.126Z,38
2019-03-04T23:03:03.105Z,39
2019-03-04T23:08:03.145Z,38
2019-03-04T23:13:03.092Z,38
2019-03-04T23:18:03.102Z,38
2019-03-04T23:23:03.061Z,37
2019-03-04T23:28:03.065Z,42
2019-03-04T23:33:03.100Z,44
2019-03-04T23:38:03.059Z,43
2019-03-04T23:43:03.031Z,42
2019-03-04T23:48:03.054Z,44
2019-03-04T23:53:03.093Z,44
